Time;durP1;ratioP1;P1;durP2;ratioP2;P2;SDS_P1;SDS_P2;PMS_P1;PMS_P2;Temp;Humidity;BMP_temperature;BMP_pressure;BME280_temperature;BME280_humidity;BME280_pressure;Samples;Min_cycle;Max_cycle;Signal;HPM_P1;HPM_P2
2021/07/26 00:01:54;;;;;;;11.10;8.10;;;;;;;;;;5094707;28;20456;-65
2021/07/26 00:04:19;;;;;;;10.23;7.88;;;;;;;;;;5092678;28;20270;-65
2021/07/26 00:06:46;;;;;;;11.07;9.05;;;;;;;;;;5095266;28;20039;-65
2021/07/26 00:09:11;;;;;;;12.75;9.52;;;;;;;;;;5095131;28;20043;-64
2021/07/26 00:11:36;;;;;;;11.82;8.48;;;;;;;;;;5094469;28;20530;-64
2021/07/26 00:14:01;;;;;;;12.20;9.35;;;;;;;;;;5091795;28;20016;-64
2021/07/26 00:16:27;;;;;;;14.57;9.40;;;;;;;;;;5094499;28;20020;-65
2021/07/26 00:18:52;;;;;;;13.27;9.50;;;;;;;;;;5095252;28;20596;-65
2021/07/26 00:21:17;;;;;;;11.63;8.73;;;;;;;;;;5094719;28;20266;-65
2021/07/26 00:23:43;;;;;;;10.68;8.88;;;;;;;;;;5091778;28;20525;-65
2021/07/26 00:26:08;;;;;;;12.80;9.10;;;;;;;;;;5094655;28;20016;-65
2021/07/26 00:28:34;;;;;;;13.10;9.70;;;;;;;;;;5086877;28;20032;-65
2021/07/26 00:30:59;;;;;;;14.00;8.63;;;;;;;;;;5091523;28;20298;-66
2021/07/26 00:34:09;;;;;;;12.05;8.30;;;;;;;;;;5092102;28;20107;-65
2021/07/26 00:36:34;;;;;;;12.43;8.27;;;;;;;;;;5093761;28;20085;-65
2021/07/26 00:38:59;;;;;;;9.75;8.00;;;;;;;;;;5094410;28;20023;-65
2021/07/26 00:41:24;;;;;;;8.15;7.15;;;;;;;;;;5095080;28;20016;-65
2021/07/26 00:43:49;;;;;;;9.02;7.47;;;;;;;;;;5091241;28;20422;-65
2021/07/26 00:46:15;;;;;;;12.35;8.10;;;;;;;;;;5090148;28;20383;-66
2021/07/26 00:48:40;;;;;;;15.15;8.35;;;;;;;;;;5092407;28;20447;-65
2021/07/26 00:51:05;;;;;;;15.10;8.40;;;;;;;;;;5094153;28;20020;-64
2021/07/26 00:53:31;;;;;;;10.00;8.07;;;;;;;;;;5091004;28;20051;-64
2021/07/26 00:55:56;;;;;;;10.77;7.80;;;;;;;;;;5094285;28;20028;-65
2021/07/26 00:58:21;;;;;;;12.95;7.70;;;;;;;;;;5096063;28;20055;-65
2021/07/26 01:00:47;;;;;;;9.60;8.65;;;;;;;;;;5094612;28;20051;-64
2021/07/26 01:03:12;;;;;;;10.02;8.18;;;;;;;;;;5092782;28;20020;-64
2021/07/26 01:05:37;;;;;;;14.23;8.57;;;;;;;;;;5093627;28;20025;-64
2021/07/26 01:08:02;;;;;;;12.88;8.00;;;;;;;;;;5093698;28;20490;-64
2021/07/26 01:10:28;;;;;;;12.05;8.30;;;;;;;;;;5093690;28;20382;-65
2021/07/26 01:12:53;;;;;;;13.95;8.70;;;;;;;;;;5093370;28;20105;-64
2021/07/26 01:15:18;;;;;;;11.07;8.50;;;;;;;;;;5090724;28;20070;-65
2021/07/26 01:18:04;;;;;;;15.35;8.80;;;;;;;;;;5094239;28;20325;-65
2021/07/26 01:20:30;;;;;;;10.40;7.22;;;;;;;;;;5073843;28;20384;-64
2021/07/26 01:22:55;;;;;;;14.47;8.07;;;;;;;;;;5073916;28;20024;-65
2021/07/26 01:25:20;;;;;;;9.37;7.30;;;;;;;;;;5080151;28;20278;-65
2021/07/26 01:27:45;;;;;;;14.50;7.80;;;;;;;;;;5093339;28;20270;-64
2021/07/26 01:30:11;;;;;;;9.05;7.70;;;;;;;;;;5093077;28;20016;-65
2021/07/26 01:32:36;;;;;;;11.00;7.25;;;;;;;;;;5091935;28;20023;-65
2021/07/26 01:35:01;;;;;;;10.95;7.45;;;;;;;;;;5090604;28;20028;-64
2021/07/26 01:37:26;;;;;;;12.57;7.13;;;;;;;;;;5093234;28;20020;-65
2021/07/26 01:39:51;;;;;;;16.98;8.50;;;;;;;;;;5093101;28;20066;-65
2021/07/26 01:42:18;;;;;;;11.00;7.60;;;;;;;;;;5093167;28;20016;-65
2021/07/26 01:44:43;;;;;;;10.93;8.18;;;;;;;;;;5090372;28;20051;-65
2021/07/26 01:47:10;;;;;;;12.52;8.02;;;;;;;;;;5093501;28;20048;-65
2021/07/26 01:50:14;;;;;;;12.15;8.00;;;;;;;;;;5093394;28;20030;-65
2021/07/26 01:52:39;;;;;;;10.40;8.25;;;;;;;;;;5064339;28;20053;-63
2021/07/26 01:55:05;;;;;;;13.18;8.05;;;;;;;;;;5059221;28;20166;-63
2021/07/26 01:57:30;;;;;;;14.60;8.30;;;;;;;;;;5067880;28;20074;-63
2021/07/26 01:59:56;;;;;;;13.48;8.00;;;;;;;;;;5057681;28;20032;-64
2021/07/26 02:02:23;;;;;;;13.70;7.95;;;;;;;;;;5054045;28;20127;-64
2021/07/26 02:04:48;;;;;;;10.32;8.48;;;;;;;;;;5051559;28;20078;-63
2021/07/26 02:07:13;;;;;;;11.48;7.38;;;;;;;;;;5070708;28;20524;-64
2021/07/26 02:09:38;;;;;;;11.75;7.50;;;;;;;;;;5070273;28;20085;-64
2021/07/26 02:12:04;;;;;;;13.07;7.87;;;;;;;;;;5070601;28;20062;-63
2021/07/26 02:14:29;;;;;;;14.82;8.23;;;;;;;;;;5067123;28;20287;-59
2021/07/26 02:16:54;;;;;;;13.32;8.23;;;;;;;;;;5069428;28;20115;-63
2021/07/26 02:19:20;;;;;;;12.18;8.90;;;;;;;;;;5070354;28;20031;-64
2021/07/26 02:21:45;;;;;;;10.80;7.28;;;;;;;;;;5070187;28;20108;-64
2021/07/26 02:24:10;;;;;;;8.55;7.50;;;;;;;;;;5084043;28;20055;-64
2021/07/26 02:26:36;;;;;;;10.50;6.80;;;;;;;;;;5092822;28;20015;-63
2021/07/26 02:29:01;;;;;;;10.85;7.35;;;;;;;;;;5080615;28;20120;-63
2021/07/26 02:31:26;;;;;;;15.02;8.77;;;;;;;;;;5072514;28;20017;-63
2021/07/26 02:33:51;;;;;;;15.45;9.45;;;;;;;;;;5089581;28;20364;-65
2021/07/26 02:36:17;;;;;;;15.82;8.73;;;;;;;;;;5091960;28;20039;-62
2021/07/26 02:38:42;;;;;;;21.13;9.52;;;;;;;;;;5092235;28;20024;-64
2021/07/26 02:41:11;;;;;;;14.68;9.52;;;;;;;;;;5092365;28;20435;-64
2021/07/26 02:43:36;;;;;;;13.18;9.10;;;;;;;;;;5089362;28;20514;-64
2021/07/26 02:46:05;;;;;;;14.60;8.32;;;;;;;;;;5092398;28;20058;-64
2021/07/26 02:48:30;;;;;;;13.10;8.75;;;;;;;;;;5092276;28;20528;-63
2021/07/26 02:50:56;;;;;;;16.33;8.75;;;;;;;;;;5092525;28;20055;-64
2021/07/26 02:53:21;;;;;;;11.15;8.02;;;;;;;;;;5089117;28;20054;-64
2021/07/26 02:55:46;;;;;;;11.82;8.13;;;;;;;;;;5092378;28;20024;-65
2021/07/26 02:58:11;;;;;;;15.18;9.80;;;;;;;;;;5091768;28;20130;-64
2021/07/26 03:00:36;;;;;;;14.23;8.43;;;;;;;;;;5091846;28;20095;-64
2021/07/26 03:03:02;;;;;;;10.98;7.78;;;;;;;;;;5091700;28;20373;-64
2021/07/26 03:05:27;;;;;;;11.25;8.02;;;;;;;;;;5089860;28;20455;-64
2021/07/26 03:07:52;;;;;;;11.90;8.05;;;;;;;;;;5092724;28;20024;-64
2021/07/26 03:10:17;;;;;;;13.45;8.40;;;;;;;;;;5091727;28;20024;-64
2021/07/26 03:12:43;;;;;;;11.77;9.45;;;;;;;;;;5092096;28;20047;-64
2021/07/26 03:15:08;;;;;;;13.38;9.55;;;;;;;;;;5089074;28;20417;-64
2021/07/26 03:17:36;;;;;;;12.70;9.25;;;;;;;;;;5092359;28;20020;-63
2021/07/26 03:20:01;;;;;;;12.05;9.57;;;;;;;;;;5091923;28;20023;-64
2021/07/26 03:22:45;;;;;;;18.15;12.93;;;;;;;;;;5091957;28;20021;-64
2021/07/26 03:25:10;;;;;;;12.98;10.30;;;;;;;;;;5088455;28;20040;-64
2021/07/26 03:27:35;;;;;;;13.25;9.43;;;;;;;;;;5092315;28;20104;-64
2021/07/26 03:30:00;;;;;;;11.23;8.38;;;;;;;;;;5082932;28;20024;-64
2021/07/26 03:32:26;;;;;;;12.80;8.25;;;;;;;;;;5092332;28;20082;-64
2021/07/26 03:34:51;;;;;;;10.80;8.02;;;;;;;;;;5089004;28;20379;-64
2021/07/26 03:37:16;;;;;;;9.32;7.95;;;;;;;;;;5095661;28;20072;-65
2021/07/26 03:39:41;;;;;;;12.60;8.18;;;;;;;;;;5095414;28;20020;-64
2021/07/26 03:42:07;;;;;;;13.02;9.88;;;;;;;;;;5095657;28;20016;-64
2021/07/26 03:44:32;;;;;;;14.13;8.23;;;;;;;;;;5092818;28;20031;-64
2021/07/26 03:46:58;;;;;;;9.82;8.82;;;;;;;;;;5095996;28;20463;-65
2021/07/26 03:49:23;;;;;;;11.30;8.98;;;;;;;;;;5095779;28;20039;-64
2021/07/26 03:51:48;;;;;;;10.77;9.25;;;;;;;;;;5095777;28;20023;-64
2021/07/26 03:54:13;;;;;;;11.70;9.00;;;;;;;;;;5091909;28;20425;-64
2021/07/26 03:56:39;;;;;;;10.48;9.38;;;;;;;;;;5095425;28;20051;-65
2021/07/26 03:59:04;;;;;;;9.95;8.95;;;;;;;;;;5103482;28;20098;-64
2021/07/26 04:01:29;;;;;;;11.90;9.77;;;;;;;;;;5095733;28;20091;-63
2021/07/26 04:03:54;;;;;;;12.30;8.43;;;;;;;;;;5092688;28;20368;-65
2021/07/26 04:06:21;;;;;;;11.05;8.35;;;;;;;;;;5095414;28;20484;-65
2021/07/26 04:08:49;;;;;;;8.55;7.78;;;;;;;;;;5095081;28;20024;-64
2021/07/26 04:11:24;;;;;;;10.18;9.07;;;;;;;;;;5095412;28;20031;-65
2021/07/26 04:14:04;;;;;;;;;;;;;;;;;;5092460;28;20032;-65
2021/07/26 04:16:30;;;;;;;10.02;8.30;;;;;;;;;;5083907;28;19982;-64
2021/07/26 04:18:57;;;;;;;11.73;8.48;;;;;;;;;;5078959;28;20024;-65
2021/07/26 04:21:29;;;;;;;11.90;7.85;;;;;;;;;;5094891;28;20043;-64
2021/07/26 04:23:54;;;;;;;8.80;8.00;;;;;;;;;;5092464;28;20020;-64
2021/07/26 04:26:20;;;;;;;9.18;7.85;;;;;;;;;;5094864;28;20430;-64
2021/07/26 04:28:45;;;;;;;11.55;7.80;;;;;;;;;;5094041;28;20074;-64
2021/07/26 04:31:10;;;;;;;10.32;8.23;;;;;;;;;;5094385;28;20024;-63
2021/07/26 04:33:35;;;;;;;8.52;7.00;;;;;;;;;;5091984;28;20054;-63
2021/07/26 04:36:01;;;;;;;12.05;7.82;;;;;;;;;;5094434;28;20383;-63
2021/07/26 04:38:26;;;;;;;16.60;8.20;;;;;;;;;;5094928;28;20019;-64
2021/07/26 04:40:52;;;;;;;10.93;7.25;;;;;;;;;;5094369;28;20372;-64
2021/07/26 04:43:17;;;;;;;9.55;7.22;;;;;;;;;;5092353;28;20043;-64
2021/07/26 04:45:42;;;;;;;8.15;7.35;;;;;;;;;;5093982;28;20028;-65
2021/07/26 04:48:07;;;;;;;10.52;7.55;;;;;;;;;;5093310;28;20386;-64
2021/07/26 04:50:33;;;;;;;10.80;7.75;;;;;;;;;;5093961;28;20024;-64
2021/07/26 04:52:58;;;;;;;9.55;7.47;;;;;;;;;;5094452;28;20048;-64
2021/07/26 04:55:24;;;;;;;10.32;7.22;;;;;;;;;;5091805;28;20038;-65
2021/07/26 04:58:04;;;;;;;11.38;8.68;;;;;;;;;;5103910;27;20578;-64
2021/07/26 05:00:30;;;;;;;11.98;7.53;;;;;;;;;;5093907;28;20062;-62
2021/07/26 05:02:55;;;;;;;10.73;7.85;;;;;;;;;;5089571;28;20466;-64
2021/07/26 05:05:21;;;;;;;10.25;8.15;;;;;;;;;;5086391;28;20013;-63
2021/07/26 05:07:46;;;;;;;10.80;7.50;;;;;;;;;;5089382;28;20051;-69
2021/07/26 05:10:11;;;;;;;11.13;7.10;;;;;;;;;;5088128;28;20023;-68
2021/07/26 05:12:36;;;;;;;7.93;7.05;;;;;;;;;;5087335;28;20016;-69
2021/07/26 05:15:02;;;;;;;8.43;6.88;;;;;;;;;;5072823;28;20020;-69
2021/07/26 05:17:27;;;;;;;8.50;7.40;;;;;;;;;;5109828;28;20405;-69
2021/07/26 05:19:53;;;;;;;10.40;7.20;;;;;;;;;;5096587;28;20018;-69
2021/07/26 05:22:22;;;;;;;8.60;6.75;;;;;;;;;;5094331;28;20059;-69
2021/07/26 05:24:47;;;;;;;9.52;6.60;;;;;;;;;;5083659;28;20016;-68
2021/07/26 05:27:12;;;;;;;8.98;6.93;;;;;;;;;;5076412;28;20021;-68
2021/07/26 05:29:38;;;;;;;7.90;7.00;;;;;;;;;;5085204;28;20095;-68
2021/07/26 05:32:04;;;;;;;7.10;6.40;;;;;;;;;;5083371;28;20024;-69
2021/07/26 05:34:29;;;;;;;7.10;6.40;;;;;;;;;;5091824;28;20032;-68
2021/07/26 05:36:55;;;;;;;6.55;6.03;;;;;;;;;;5086137;28;20024;-69
2021/07/26 05:39:20;;;;;;;8.43;6.03;;;;;;;;;;5083166;28;20048;-68
2021/07/26 05:41:46;;;;;;;8.93;6.55;;;;;;;;;;5088802;28;20426;-67
2021/07/26 05:44:11;;;;;;;11.60;7.57;;;;;;;;;;5085069;28;20074;-67
2021/07/26 05:46:37;;;;;;;9.73;6.07;;;;;;;;;;5087411;28;20026;-69
2021/07/26 05:49:02;;;;;;;6.90;6.30;;;;;;;;;;5088634;28;20021;-69
2021/07/26 05:51:27;;;;;;;11.18;6.78;;;;;;;;;;5088454;28;20628;-68
2021/07/26 05:53:52;;;;;;;7.80;5.75;;;;;;;;;;5084827;28;20024;-68
2021/07/26 05:56:18;;;;;;;7.05;6.00;;;;;;;;;;5088341;28;20045;-69
2021/07/26 05:58:48;;;;;;;7.60;5.82;;;;;;;;;;5072068;28;20032;-69
2021/07/26 06:03:49;;;;;;;6.38;5.80;;;;;;;;;;5095315;28;20016;-70
2021/07/26 06:06:14;;;;;;;8.20;5.85;;;;;;;;;;5088233;28;20020;-69
2021/07/26 06:08:39;;;;;;;6.80;5.50;;;;;;;;;;5072600;28;20023;-70
2021/07/26 06:11:04;;;;;;;8.30;5.68;;;;;;;;;;5080702;28;20492;-69
2021/07/26 06:13:30;;;;;;;6.10;5.47;;;;;;;;;;5070128;28;20021;-69
2021/07/26 06:15:56;;;;;;;6.72;6.00;;;;;;;;;;5062328;28;20033;-70
2021/07/26 06:18:21;;;;;;;7.20;5.63;;;;;;;;;;5066872;28;20021;-70
2021/07/26 06:20:46;;;;;;;9.35;6.70;;;;;;;;;;5074218;28;20027;-70
2021/07/26 06:23:11;;;;;;;8.32;5.93;;;;;;;;;;5071429;28;20031;-70
2021/07/26 06:25:36;;;;;;;9.98;6.00;;;;;;;;;;5073425;28;20048;-70
2021/07/26 06:28:02;;;;;;;6.10;5.50;;;;;;;;;;5070959;28;20046;-70
2021/07/26 06:30:27;;;;;;;7.00;5.55;;;;;;;;;;5071936;28;20116;-71
2021/07/26 06:32:53;;;;;;;5.80;5.20;;;;;;;;;;5073720;28;20063;-70
2021/07/26 06:35:19;;;;;;;7.95;5.65;;;;;;;;;;5071457;28;20192;-71
2021/07/26 06:37:44;;;;;;;6.05;5.43;;;;;;;;;;5074508;28;20035;-70
2021/07/26 06:40:10;;;;;;;5.68;4.57;;;;;;;;;;5073756;28;20329;-70
2021/07/26 06:42:35;;;;;;;5.90;4.95;;;;;;;;;;5065824;28;20025;-70
2021/07/26 06:45:00;;;;;;;7.50;4.97;;;;;;;;;;5067456;28;20375;-70
2021/07/26 06:47:25;;;;;;;5.60;4.88;;;;;;;;;;5074297;28;20428;-70
2021/07/26 06:49:50;;;;;;;6.07;5.47;;;;;;;;;;5073187;28;20032;-70
2021/07/26 06:52:16;;;;;;;6.47;4.97;;;;;;;;;;5073845;28;20699;-70
2021/07/26 06:54:41;;;;;;;5.22;4.72;;;;;;;;;;5071227;28;20413;-71
2021/07/26 06:57:06;;;;;;;5.25;4.80;;;;;;;;;;5073562;28;20463;-75
2021/07/26 06:59:31;;;;;;;5.95;5.45;;;;;;;;;;5073658;28;20032;-73
2021/07/26 07:01:56;;;;;;;5.20;4.70;;;;;;;;;;5074286;28;20121;-73
2021/07/26 07:04:22;;;;;;;5.10;4.60;;;;;;;;;;5069721;28;20537;-74
2021/07/26 07:06:47;;;;;;;5.65;4.78;;;;;;;;;;5073024;28;20358;-73
2021/07/26 07:09:13;;;;;;;4.72;4.15;;;;;;;;;;5073532;28;20525;-74
2021/07/26 07:11:38;;;;;;;4.90;4.50;;;;;;;;;;5070414;28;20375;-72
2021/07/26 07:14:03;;;;;;;4.63;4.32;;;;;;;;;;5065929;28;20099;-74
2021/07/26 07:16:28;;;;;;;5.30;4.80;;;;;;;;;;5068465;28;20106;-72
2021/07/26 07:18:54;;;;;;;5.80;5.20;;;;;;;;;;5072463;28;20082;-71
2021/07/26 07:21:20;;;;;;;5.88;4.43;;;;;;;;;;5070882;28;20047;-73
2021/07/26 07:23:46;;;;;;;8.48;4.60;;;;;;;;;;5069762;28;20052;-69
2021/07/26 07:26:11;;;;;;;5.82;4.43;;;;;;;;;;5065127;28;20533;-73
2021/07/26 07:28:37;;;;;;;4.57;4.18;;;;;;;;;;5061507;28;20016;-72
2021/07/26 07:31:02;;;;;;;6.43;4.85;;;;;;;;;;5072508;28;20032;-71
2021/07/26 07:33:27;;;;;;;4.27;3.70;;;;;;;;;;5067117;28;20017;-73
2021/07/26 07:35:53;;;;;;;4.90;4.40;;;;;;;;;;5078447;28;20823;-70
2021/07/26 07:38:18;;;;;;;5.28;4.57;;;;;;;;;;5060804;28;20669;-71
2021/07/26 07:40:43;;;;;;;8.35;5.03;;;;;;;;;;5065877;28;20071;-72
2021/07/26 07:43:09;;;;;;;5.60;4.57;;;;;;;;;;5070835;28;20021;-71
2021/07/26 07:45:34;;;;;;;4.77;4.37;;;;;;;;;;5087228;28;20410;-71
2021/07/26 07:47:59;;;;;;;5.35;4.45;;;;;;;;;;5092002;28;20786;-73
2021/07/26 07:50:25;;;;;;;5.05;4.57;;;;;;;;;;5081797;28;20025;-73
2021/07/26 07:52:50;;;;;;;3.97;3.58;;;;;;;;;;5061317;28;20074;-72
2021/07/26 07:55:15;;;;;;;4.20;3.80;;;;;;;;;;5065669;28;20028;-72
2021/07/26 07:57:41;;;;;;;3.35;3.00;;;;;;;;;;5071986;28;20482;-73
2021/07/26 08:00:10;;;;;;;5.45;4.30;;;;;;;;;;5082956;28;20048;-73
2021/07/26 08:02:35;;;;;;;4.32;3.58;;;;;;;;;;5072619;28;20467;-73
2021/07/26 08:05:01;;;;;;;4.43;4.03;;;;;;;;;;5069283;28;20023;-73
2021/07/26 08:07:26;;;;;;;5.82;3.22;;;;;;;;;;5072944;28;20174;-74
2021/07/26 08:09:51;;;;;;;6.65;3.42;;;;;;;;;;5065695;28;20439;-74
2021/07/26 08:12:18;;;;;;;3.87;3.50;;;;;;;;;;5071790;28;20035;-73
2021/07/26 08:14:43;;;;;;;4.10;3.70;;;;;;;;;;5059723;28;20254;-74
2021/07/26 08:17:08;;;;;;;3.45;3.15;;;;;;;;;;5085848;28;20487;-73
2021/07/26 08:19:34;;;;;;;4.23;3.73;;;;;;;;;;5092745;28;20125;-74
2021/07/26 08:21:59;;;;;;;3.72;3.40;;;;;;;;;;5092483;28;20246;-74
2021/07/26 08:24:24;;;;;;;3.63;3.17;;;;;;;;;;5086780;28;20069;-74
2021/07/26 08:26:49;;;;;;;3.85;3.00;;;;;;;;;;5066528;28;20062;-74
2021/07/26 08:29:15;;;;;;;3.45;2.90;;;;;;;;;;5065215;28;20019;-74
2021/07/26 08:31:40;;;;;;;2.70;2.50;;;;;;;;;;5071693;28;20074;-67
2021/07/26 08:34:05;;;;;;;2.60;2.50;;;;;;;;;;5078470;28;20514;-67
2021/07/26 08:36:30;;;;;;;2.53;2.30;;;;;;;;;;5069638;28;20301;-66
2021/07/26 08:38:55;;;;;;;3.23;2.93;;;;;;;;;;5072539;28;20271;-67
2021/07/26 08:41:21;;;;;;;4.70;3.35;;;;;;;;;;5071690;28;20346;-67
2021/07/26 08:43:46;;;;;;;2.50;2.30;;;;;;;;;;5067718;28;20056;-66
2021/07/26 08:46:15;;;;;;;3.35;2.90;;;;;;;;;;5070327;28;20028;-66
2021/07/26 08:48:41;;;;;;;3.17;2.53;;;;;;;;;;5071826;28;20028;-67
2021/07/26 08:51:07;;;;;;;2.97;2.78;;;;;;;;;;5071447;28;20410;-66
2021/07/26 08:53:33;;;;;;;3.08;2.45;;;;;;;;;;5068865;28;20050;-67
2021/07/26 08:55:58;;;;;;;3.30;3.00;;;;;;;;;;5071928;28;20040;-66
2021/07/26 08:58:24;;;;;;;2.78;2.35;;;;;;;;;;5058273;28;20017;-67
2021/07/26 09:00:49;;;;;;;3.25;2.97;;;;;;;;;;5063644;28;20259;-66
2021/07/26 09:03:14;;;;;;;3.55;2.88;;;;;;;;;;5074478;28;20020;-66
2021/07/26 09:05:39;;;;;;;3.33;3.03;;;;;;;;;;5072692;28;20017;-66
2021/07/26 09:08:05;;;;;;;3.93;2.80;;;;;;;;;;5071808;28;20744;-66
2021/07/26 09:10:35;;;;;;;3.22;2.92;;;;;;;;;;5064420;28;20733;-65
2021/07/26 09:13:01;;;;;;;4.65;2.92;;;;;;;;;;5070482;28;20082;-65
2021/07/26 09:15:33;;;;;;;4.07;2.70;;;;;;;;;;5069723;28;20460;-67
2021/07/26 09:18:02;;;;;;;2.50;2.20;;;;;;;;;;5071432;28;20059;-66
2021/07/26 09:20:30;;;;;;;2.72;2.53;;;;;;;;;;5070783;28;20414;-64
2021/07/26 09:23:07;;;;;;;3.05;2.80;;;;;;;;;;5071821;28;20008;-67
2021/07/26 09:25:33;;;;;;;2.55;2.35;;;;;;;;;;5069684;28;20013;-67
2021/07/26 09:28:05;;;;;;;4.38;2.45;;;;;;;;;;5071443;28;20090;-66
2021/07/26 09:30:50;;;;;;;2.90;2.55;;;;;;;;;;5079743;28;20031;-66
2021/07/26 09:33:16;;;;;;;2.55;2.33;;;;;;;;;;5075846;28;20052;-67
2021/07/26 09:35:42;;;;;;;3.00;2.57;;;;;;;;;;5070859;28;20055;-67
2021/07/26 09:38:07;;;;;;;4.78;2.42;;;;;;;;;;5058547;28;20472;-67
2021/07/26 09:40:33;;;;;;;2.97;2.67;;;;;;;;;;5061764;28;20035;-67
2021/07/26 09:43:19;;;;;;;3.08;2.80;;;;;;;;;;5067391;28;20028;-67
2021/07/26 09:45:45;;;;;;;2.35;2.15;;;;;;;;;;5065175;28;20028;-67
2021/07/26 09:48:12;;;;;;;2.80;2.60;;;;;;;;;;5094068;28;20093;-67
2021/07/26 09:50:38;;;;;;;2.58;2.38;;;;;;;;;;5075305;28;20070;-67
2021/07/26 09:53:22;;;;;;;3.00;2.80;;;;;;;;;;5085595;28;20051;-67
2021/07/26 09:55:50;;;;;;;2.30;2.13;;;;;;;;;;5079757;28;20020;-67
2021/07/26 09:58:17;;;;;;;2.75;2.55;;;;;;;;;;5072636;28;20107;-67
2021/07/26 10:00:42;;;;;;;2.78;2.50;;;;;;;;;;5073882;28;20020;-67
2021/07/26 10:03:09;;;;;;;2.67;1.95;;;;;;;;;;5066734;28;20021;-67
2021/07/26 10:05:35;;;;;;;2.30;2.10;;;;;;;;;;5070807;28;20336;-67
2021/07/26 10:08:02;;;;;;;3.92;2.65;;;;;;;;;;5060168;28;20091;-68
2021/07/26 10:10:27;;;;;;;2.70;2.33;;;;;;;;;;5070360;28;20483;-68
2021/07/26 10:12:52;;;;;;;3.00;2.58;;;;;;;;;;5074098;28;20107;-68
2021/07/26 10:15:20;;;;;;;3.10;2.53;;;;;;;;;;5069121;28;20331;-68
2021/07/26 10:17:47;;;;;;;2.67;2.47;;;;;;;;;;5067449;28;20028;-62
2021/07/26 10:20:14;;;;;;;2.90;2.30;;;;;;;;;;5082662;28;20025;-65
2021/07/26 10:22:40;;;;;;;2.55;1.98;;;;;;;;;;5083927;28;20028;-70
2021/07/26 10:25:07;;;;;;;3.83;2.28;;;;;;;;;;5062720;28;20024;-68
2021/07/26 10:27:34;;;;;;;1.77;1.65;;;;;;;;;;5070091;28;20103;-65
2021/07/26 10:30:00;;;;;;;2.42;2.08;;;;;;;;;;5071015;28;20021;-65
2021/07/26 10:32:35;;;;;;;3.03;1.92;;;;;;;;;;5073838;28;20020;-67
2021/07/26 10:35:02;;;;;;;3.40;2.58;;;;;;;;;;5069529;28;20119;-65
2021/07/26 10:37:39;;;;;;;2.50;2.22;;;;;;;;;;5074095;28;20442;-66
2021/07/26 10:40:16;;;;;;;3.10;2.33;;;;;;;;;;5072270;28;20023;-66
2021/07/26 10:42:42;;;;;;;2.95;2.40;;;;;;;;;;5067031;28;20016;-66
2021/07/26 10:45:07;;;;;;;2.55;2.35;;;;;;;;;;5070431;28;20092;-65
2021/07/26 10:47:33;;;;;;;2.60;2.40;;;;;;;;;;5072367;28;20033;-65
2021/07/26 10:50:08;;;;;;;1.85;1.75;;;;;;;;;;5073970;28;20021;-65
2021/07/26 10:52:33;;;;;;;2.40;2.20;;;;;;;;;;5074082;28;20032;-65
2021/07/26 10:55:01;;;;;;;2.03;1.93;;;;;;;;;;5070663;28;20016;-65
2021/07/26 10:57:49;;;;;;;2.72;2.10;;;;;;;;;;5071743;28;20581;-65
2021/07/26 11:00:16;;;;;;;2.08;1.90;;;;;;;;;;5061880;28;20023;-65
2021/07/26 11:02:42;;;;;;;2.92;2.22;;;;;;;;;;5072891;28;20391;-65
2021/07/26 11:05:25;;;;;;;3.15;2.10;;;;;;;;;;5070833;28;20481;-65
2021/07/26 11:08:09;;;;;;;2.37;1.70;;;;;;;;;;5073696;28;20028;-64
2021/07/26 11:10:44;;;;;;;1.60;1.50;;;;;;;;;;5062623;28;20047;-65
2021/07/26 11:13:09;;;;;;;1.55;1.45;;;;;;;;;;5071496;28;20036;-64
2021/07/26 11:15:44;;;;;;;1.83;1.65;;;;;;;;;;5072407;28;20027;-65
2021/07/26 11:18:20;;;;;;;2.50;1.45;;;;;;;;;;5063802;28;20028;-66
2021/07/26 11:20:56;;;;;;;1.10;1.10;;;;;;;;;;5067055;28;20028;-65
2021/07/26 11:23:40;;;;;;;2.55;1.70;;;;;;;;;;5067446;28;20280;-65
2021/07/26 11:26:13;;;;;;;1.75;1.65;;;;;;;;;;5073557;28;20020;-66
2021/07/26 11:28:38;;;;;;;1.98;1.88;;;;;;;;;;5073321;28;20016;-66
2021/07/26 11:31:04;;;;;;;1.63;1.53;;;;;;;;;;5061817;28;20471;-66
2021/07/26 11:33:31;;;;;;;1.88;1.65;;;;;;;;;;5068146;28;20585;-65
2021/07/26 11:35:58;;;;;;;1.67;1.58;;;;;;;;;;5073108;28;20111;-65
2021/07/26 11:38:24;;;;;;;3.13;1.40;;;;;;;;;;5063067;28;20463;-66
2021/07/26 11:40:49;;;;;;;1.47;1.37;;;;;;;;;;5070025;28;20039;-66
2021/07/26 11:43:14;;;;;;;1.43;1.33;;;;;;;;;;5055450;28;20031;-66
2021/07/26 11:45:39;;;;;;;2.63;1.17;;;;;;;;;;5064838;28;20016;-66
2021/07/26 11:48:07;;;;;;;1.60;1.50;;;;;;;;;;5066472;28;20021;-66
2021/07/26 11:50:36;;;;;;;1.67;1.30;;;;;;;;;;5083475;28;20357;-66
2021/07/26 11:53:02;;;;;;;1.95;1.50;;;;;;;;;;5067397;28;20028;-66
2021/07/26 11:55:31;;;;;;;1.30;1.13;;;;;;;;;;5068879;28;20087;-66
2021/07/26 11:57:57;;;;;;;1.95;1.27;;;;;;;;;;5071982;28;20355;-66
2021/07/26 12:00:28;;;;;;;1.55;1.40;;;;;;;;;;5072485;28;20048;-66
2021/07/26 12:02:54;;;;;;;1.50;1.40;;;;;;;;;;5072223;28;20051;-67
2021/07/26 12:05:26;;;;;;;1.85;1.20;;;;;;;;;;5052882;28;20013;-66
2021/07/26 12:07:51;;;;;;;1.35;1.30;;;;;;;;;;5064233;28;20024;-66
2021/07/26 12:10:16;;;;;;;1.55;1.40;;;;;;;;;;5070452;28;20039;-66
2021/07/26 12:12:46;;;;;;;1.73;1.63;;;;;;;;;;5072317;28;20021;-66
2021/07/26 12:15:40;;;;;;;2.78;1.67;;;;;;;;;;5069532;28;20313;-66
2021/07/26 12:18:07;;;;;;;2.45;1.67;;;;;;;;;;5058567;28;20055;-66
2021/07/26 12:20:33;;;;;;;1.63;1.52;;;;;;;;;;5072513;28;20024;-66
2021/07/26 12:23:09;;;;;;;2.03;1.63;;;;;;;;;;5071986;28;20028;-66
2021/07/26 12:25:40;;;;;;;2.55;1.55;;;;;;;;;;5070591;28;20099;-66
2021/07/26 12:28:06;;;;;;;1.45;1.33;;;;;;;;;;5070421;28;20441;-66
2021/07/26 12:30:38;;;;;;;1.60;1.50;;;;;;;;;;5067935;28;20510;-66
2021/07/26 12:33:04;;;;;;;1.50;1.40;;;;;;;;;;5070811;28;20078;-66
2021/07/26 12:35:30;;;;;;;1.55;1.48;;;;;;;;;;5069082;28;20044;-65
2021/07/26 12:38:02;;;;;;;1.95;1.85;;;;;;;;;;5071754;28;20086;-66
2021/07/26 12:40:28;;;;;;;1.73;1.60;;;;;;;;;;5072368;28;20017;-66
2021/07/26 12:43:03;;;;;;;1.50;1.40;;;;;;;;;;5069979;28;20020;-65
2021/07/26 12:45:29;;;;;;;1.63;1.52;;;;;;;;;;5061151;28;20379;-66
2021/07/26 12:47:54;;;;;;;1.98;1.80;;;;;;;;;;5072135;28;20024;-65
2021/07/26 12:50:19;;;;;;;3.10;1.90;;;;;;;;;;5071766;28;20033;-65
2021/07/26 12:52:44;;;;;;;2.00;1.63;;;;;;;;;;5072146;28;20024;-66
2021/07/26 12:55:13;;;;;;;2.20;2.00;;;;;;;;;;5067292;28;20115;-65
2021/07/26 12:57:38;;;;;;;2.67;1.67;;;;;;;;;;5071609;28;20174;-66
2021/07/26 13:00:04;;;;;;;2.73;1.93;;;;;;;;;;5069979;28;20447;-65
2021/07/26 13:02:29;;;;;;;2.47;2.10;;;;;;;;;;5060649;28;20016;-67
2021/07/26 13:04:54;;;;;;;3.50;2.80;;;;;;;;;;5068724;28;20016;-66
2021/07/26 13:07:19;;;;;;;2.53;2.30;;;;;;;;;;5071649;28;20263;-67
2021/07/26 13:09:45;;;;;;;5.00;2.10;;;;;;;;;;5071763;28;20265;-67
2021/07/26 13:12:10;;;;;;;4.07;2.30;;;;;;;;;;5070118;28;20034;-63
2021/07/26 13:14:35;;;;;;;3.93;2.60;;;;;;;;;;5067828;28;20063;-63
2021/07/26 13:17:01;;;;;;;5.17;2.93;;;;;;;;;;5069803;28;20279;-62
2021/07/26 13:19:26;;;;;;;6.47;4.40;;;;;;;;;;5068798;28;20269;-64
2021/07/26 13:21:51;;;;;;;17.20;9.50;;;;;;;;;;5075464;28;20460;-62
2021/07/26 13:24:17;;;;;;;14.30;10.97;;;;;;;;;;5071766;28;20020;-63
2021/07/26 13:26:42;;;;;;;12.80;9.27;;;;;;;;;;5081114;28;20273;-61
2021/07/26 13:29:07;;;;;;;12.10;8.43;;;;;;;;;;5076221;28;20375;-63
2021/07/26 13:31:35;;;;;;;13.55;8.48;;;;;;;;;;5074935;28;20032;-63
2021/07/26 13:34:00;;;;;;;17.10;11.55;;;;;;;;;;5061407;28;20327;-63
2021/07/26 13:36:25;;;;;;;14.93;11.38;;;;;;;;;;5056316;28;20108;-64
2021/07/26 13:38:50;;;;;;;9.55;8.55;;;;;;;;;;5073875;28;20020;-65
2021/07/26 13:41:16;;;;;;;12.75;10.55;;;;;;;;;;5073206;28;20035;-66
2021/07/26 13:43:41;;;;;;;9.73;8.77;;;;;;;;;;5078526;28;20457;-66
2021/07/26 13:46:06;;;;;;;15.18;11.65;;;;;;;;;;5078738;28;20103;-66
2021/07/26 13:48:33;;;;;;;9.77;8.55;;;;;;;;;;5066908;28;20020;-65
2021/07/26 13:51:00;;;;;;;13.90;11.15;;;;;;;;;;5070041;28;20024;-66
2021/07/26 13:53:25;;;;;;;11.15;9.38;;;;;;;;;;5071634;28;20098;-65
2021/07/26 13:55:50;;;;;;;10.63;8.80;;;;;;;;;;5073409;28;20392;-66
2021/07/26 13:58:16;;;;;;;10.75;9.23;;;;;;;;;;5074631;28;20029;-66
2021/07/26 14:00:41;;;;;;;19.10;13.63;;;;;;;;;;5080345;28;20490;-65
2021/07/26 14:03:06;;;;;;;15.73;11.63;;;;;;;;;;5089069;28;20016;-65
2021/07/26 14:05:32;;;;;;;7.50;5.60;;;;;;;;;;5062046;28;20016;-63
2021/07/26 14:07:57;;;;;;;6.80;6.20;;;;;;;;;;5074151;28;20043;-64
2021/07/26 14:10:22;;;;;;;8.60;7.80;;;;;;;;;;5072096;28;20081;-63
2021/07/26 14:12:48;;;;;;;7.82;7.03;;;;;;;;;;5077990;28;20047;-65
2021/07/26 14:15:13;;;;;;;10.15;9.10;;;;;;;;;;5081418;28;20055;-62
2021/07/26 14:17:40;;;;;;;9.60;8.15;;;;;;;;;;5080009;28;20087;-64
2021/07/26 14:20:05;;;;;;;9.23;7.15;;;;;;;;;;5075518;28;20066;-62
2021/07/26 14:22:31;;;;;;;6.05;5.55;;;;;;;;;;5073819;28;20480;-62
2021/07/26 14:24:56;;;;;;;5.72;5.05;;;;;;;;;;5072057;28;20016;-62
2021/07/26 14:27:22;;;;;;;5.00;4.50;;;;;;;;;;5073001;28;20437;-63
2021/07/26 14:29:47;;;;;;;9.20;6.95;;;;;;;;;;5073754;28;20025;-63
2021/07/26 14:32:12;;;;;;;7.55;6.45;;;;;;;;;;5074460;28;20017;-63
2021/07/26 14:34:37;;;;;;;6.10;4.93;;;;;;;;;;5077429;28;20032;-63
2021/07/26 14:37:04;;;;;;;5.32;4.82;;;;;;;;;;5073584;28;20362;-62
2021/07/26 14:39:29;;;;;;;4.22;3.78;;;;;;;;;;5073526;28;20442;-63